Time;durP1;ratioP1;P1;durP2;ratioP2;P2;SDS_P1;SDS_P2;PMS_P1;PMS_P2;Temp;Humidity;BMP_temperature;BMP_pressure;BME280_temperature;BME280_humidity;BME280_pressure;Samples;Min_cycle;Max_cycle;Signal;HPM_P1;HPM_P2
2023/05/30 00:01:21;;;;;;;6.90;3.40;;;;;;;15.62;53.10;100923.91;104984;1269;99064;-79
2023/05/30 00:04:07;;;;;;;6.00;2.60;;;;;;;15.60;53.40;100923.77;105147;1269;101369;-77
2023/05/30 00:06:52;;;;;;;6.70;3.30;;;;;;;15.56;53.54;100924.20;104633;1265;99111;-79
2023/05/30 00:09:38;;;;;;;10.20;3.70;;;;;;;15.52;53.45;100926.36;104902;1269;98078;-78
2023/05/30 00:12:24;;;;;;;9.00;3.00;;;;;;;15.46;53.65;100927.27;105049;1270;98126;-78
2023/05/30 00:15:10;;;;;;;8.00;3.20;;;;;;;15.45;53.86;100927.83;104941;1270;98447;-80
2023/05/30 00:17:57;;;;;;;6.60;2.60;;;;;;;15.41;54.10;100925.73;104883;1269;101378;-78
2023/05/30 00:20:44;;;;;;;9.40;3.30;;;;;;;15.37;53.99;100928.89;104897;1269;100990;-78
2023/05/30 00:23:31;;;;;;;9.90;3.40;;;;;;;15.32;54.09;100932.00;105595;1269;98057;-81
2023/05/30 00:26:17;;;;;;;6.10;2.60;;;;;;;15.27;54.38;100935.66;105649;1265;97896;-81
2023/05/30 00:29:07;;;;;;;7.90;2.50;;;;;;;15.23;54.66;100934.95;105645;1270;97892;-80
2023/05/30 00:31:53;;;;;;;6.40;2.60;;;;;;;15.18;54.88;100932.55;105644;1269;101320;-80
2023/05/30 00:34:38;;;;;;;7.20;2.70;;;;;;;15.11;55.06;100934.30;105621;1270;100390;-80
2023/05/30 00:37:25;;;;;;;5.70;2.70;;;;;;;15.03;54.98;100933.77;105694;1269;98450;-81
2023/05/30 00:40:11;;;;;;;8.00;2.90;;;;;;;14.91;55.01;100937.03;105762;1265;97765;-82
2023/05/30 00:42:57;;;;;;;6.50;2.70;;;;;;;14.83;55.12;100937.04;105708;1267;97885;-80
2023/05/30 00:45:42;;;;;;;9.80;3.30;;;;;;;14.79;55.41;100935.98;105694;1270;102094;-81
2023/05/30 00:48:28;;;;;;;10.50;2.80;;;;;;;14.77;55.47;100932.09;105650;1267;99302;-81
2023/05/30 00:51:16;;;;;;;10.50;3.00;;;;;;;14.78;55.78;100934.67;105705;1267;98986;-81
2023/05/30 00:54:03;;;;;;;10.60;2.60;;;;;;;14.79;55.61;100938.64;105682;1267;97981;-80
2023/05/30 00:56:48;;;;;;;6.90;2.50;;;;;;;14.77;55.66;100941.42;105741;1267;98675;-78
2023/05/30 00:59:35;;;;;;;10.80;3.10;;;;;;;14.74;55.64;100943.65;105703;1266;102984;-81
2023/05/30 01:02:23;;;;;;;4.80;2.20;;;;;;;14.71;55.63;100943.65;105823;1269;100650;-81
2023/05/30 01:05:14;;;;;;;5.60;2.60;;;;;;;14.67;55.54;100944.94;106009;1270;98758;-81
2023/05/30 01:08:00;;;;;;;6.20;2.40;;;;;;;14.59;55.63;100947.74;105690;1267;97978;-78
2023/05/30 01:10:54;;;;;;;6.70;2.50;;;;;;;14.52;55.55;100949.38;105008;1269;99081;-79
2023/05/30 01:13:43;;;;;;;4.00;2.00;;;;;;;14.41;55.62;100947.58;104768;1279;101351;-80
2023/05/30 01:16:34;;;;;;;9.90;2.20;;;;;;;14.35;55.75;100953.56;105386;1265;99805;-79
2023/05/30 01:19:23;;;;;;;6.90;2.50;;;;;;;14.34;55.57;100956.25;104844;1274;97966;-78
2023/05/30 01:22:26;;;;;;;5.40;2.20;;;;;;;14.32;55.85;100958.15;104889;1270;97981;-80
2023/05/30 01:25:30;;;;;;;4.70;2.20;;;;;;;14.27;55.67;100958.41;105705;1271;98006;-80
2023/05/30 01:28:21;;;;;;;5.50;2.30;;;;;;;14.22;55.79;100957.55;105709;1267;101376;-80
2023/05/30 01:31:08;;;;;;;6.00;2.20;;;;;;;14.19;55.96;100961.80;105734;1268;100130;-80
2023/05/30 01:33:54;;;;;;;6.20;2.10;;;;;;;14.17;55.99;100961.84;105644;1269;97969;-80
2023/05/30 01:36:40;;;;;;;10.40;4.10;;;;;;;14.16;56.19;100962.73;105745;1270;98026;-80
2023/05/30 01:39:26;;;;;;;4.10;2.00;;;;;;;14.19;56.39;100965.25;105760;1269;98023;-80
2023/05/30 01:42:20;;;;;;;7.10;2.60;;;;;;;14.21;56.25;100964.38;105652;1269;101359;-80
2023/05/30 01:45:16;;;;;;;7.20;2.30;;;;;;;14.20;56.28;100967.56;105767;1265;100184;-80
2023/05/30 01:48:12;;;;;;;6.40;2.60;;;;;;;14.15;56.14;100970.08;105660;1267;98986;-80
2023/05/30 01:51:00;;;;;;;6.10;2.40;;;;;;;14.11;56.37;100973.59;105748;1266;97885;-80
2023/05/30 01:53:51;;;;;;;9.00;2.50;;;;;;;14.09;56.41;100971.75;105888;1270;97979;-79
2023/05/30 01:56:38;;;;;;;7.20;2.60;;;;;;;14.04;56.14;100972.43;105591;1267;101413;-80
2023/05/30 01:59:27;;;;;;;6.20;1.80;;;;;;;13.97;56.07;100974.48;105609;1269;99158;-80
2023/05/30 02:02:13;;;;;;;5.60;1.90;;;;;;;13.88;56.51;100978.02;105692;1269;99112;-81
2023/05/30 02:04:58;;;;;;;6.40;2.40;;;;;;;13.79;56.46;100980.67;105730;1267;97993;-80
2023/05/30 02:07:44;;;;;;;4.80;2.10;;;;;;;13.73;56.63;100982.81;105823;1267;99673;-81
2023/05/30 02:10:30;;;;;;;5.50;2.10;;;;;;;13.68;56.62;100981.59;105581;1273;102615;-81
2023/05/30 02:13:16;;;;;;;8.40;2.70;;;;;;;13.65;56.81;100979.70;105719;1267;100330;-80
2023/05/30 02:16:02;;;;;;;6.90;2.20;;;;;;;13.60;56.88;100980.10;105668;1267;99089;-81
2023/05/30 02:18:48;;;;;;;6.70;2.10;;;;;;;13.55;56.71;100977.11;105696;1267;97961;-80
2023/05/30 02:21:33;;;;;;;7.60;2.20;;;;;;;13.48;56.76;100980.05;105825;1269;97981;-81
2023/05/30 02:24:21;;;;;;;5.30;2.10;;;;;;;13.41;56.81;100979.01;105677;1266;102965;-81
2023/05/30 02:27:06;;;;;;;11.00;2.50;;;;;;;13.33;57.01;100974.92;105610;1267;100324;-80
2023/05/30 02:29:52;;;;;;;5.40;1.90;;;;;;;13.29;57.24;100977.16;105777;1269;98765;-80
2023/05/30 02:32:37;;;;;;;9.30;2.60;;;;;;;13.27;57.55;100981.25;105854;1269;98013;-80
2023/05/30 02:35:23;;;;;;;7.80;2.50;;;;;;;13.24;57.52;100982.17;105780;1268;97893;-81
2023/05/30 02:38:09;;;;;;;8.50;2.90;;;;;;;13.18;57.31;100983.08;105630;1269;102076;-79
2023/05/30 02:40:55;;;;;;;10.50;2.30;;;;;;;13.12;57.52;100981.46;104963;1270;99205;-78
2023/05/30 02:43:43;;;;;;;7.80;2.60;;;;;;;13.12;57.69;100985.14;104888;1267;98038;-80
2023/05/30 02:46:29;;;;;;;6.90;2.30;;;;;;;13.09;57.92;100988.39;104830;1271;97978;-78
2023/05/30 02:49:15;;;;;;;7.50;2.30;;;;;;;13.05;58.15;100986.66;104996;1267;98424;-79
2023/05/30 02:52:00;;;;;;;7.90;2.30;;;;;;;13.05;58.35;100984.92;104991;1267;102610;-80
2023/05/30 02:54:49;;;;;;;10.00;2.30;;;;;;;13.05;58.44;100987.23;104885;1269;99133;-78
2023/05/30 02:57:57;;;;;;;8.40;2.20;;;;;;;13.05;58.57;100987.44;104945;1279;99017;-79
2023/05/30 03:01:07;;;;;;;4.50;1.90;;;;;;;13.03;58.24;100986.58;104909;1270;98129;-78
2023/05/30 03:03:55;;;;;;;4.40;2.20;;;;;;;13.04;58.63;100987.08;104970;1269;98529;-79
2023/05/30 03:06:49;;;;;;;4.70;2.00;;;;;;;13.02;58.72;100987.59;104916;1269;101344;-79
2023/05/30 03:09:44;;;;;;;9.00;2.20;;;;;;;12.90;58.61;100990.54;104972;1270;100545;-80
2023/05/30 03:12:31;;;;;;;4.20;1.90;;;;;;;12.81;59.00;100990.27;104887;1270;99109;-79
2023/05/30 03:15:17;;;;;;;5.00;2.00;;;;;;;12.70;59.24;100996.04;104805;1270;97970;-78
2023/05/30 03:18:03;;;;;;;9.60;2.80;;;;;;;12.63;59.39;100997.65;105039;1270;98520;-79
2023/05/30 03:20:49;;;;;;;5.30;2.10;;;;;;;12.62;59.85;100995.64;104849;1269;102611;-79
2023/05/30 03:23:35;;;;;;;9.60;2.40;;;;;;;12.62;60.00;100998.66;104839;1270;100601;-79
2023/05/30 03:26:22;;;;;;;8.80;2.00;;;;;;;12.65;60.22;101000.28;104829;1279;97894;-80
2023/05/30 03:29:08;;;;;;;10.00;2.10;;;;;;;12.70;60.15;100998.22;105221;1271;98081;-79
2023/05/30 03:31:54;;;;;;;8.50;1.90;;;;;;;12.73;60.32;100994.73;104939;1270;97993;-80
2023/05/30 03:34:39;;;;;;;8.50;2.30;;;;;;;12.74;60.56;101001.98;105532;1270;101335;-81
2023/05/30 03:37:25;;;;;;;5.10;2.00;;;;;;;12.71;60.78;101007.29;105389;1269;100387;-78
2023/05/30 03:40:11;;;;;;;6.60;2.40;;;;;;;12.68;60.73;101013.87;105465;1270;98057;-79
2023/05/30 03:42:59;;;;;;;10.60;2.20;;;;;;;12.65;60.73;101014.59;104799;1267;97914;-79
2023/05/30 03:45:45;;;;;;;8.90;2.80;;;;;;;12.62;61.12;101014.54;105739;1269;98370;-79
2023/05/30 03:48:30;;;;;;;6.00;2.20;;;;;;;12.64;61.72;101017.81;105409;1270;102005;-78
2023/05/30 03:51:16;;;;;;;7.30;3.00;;;;;;;12.68;61.93;101024.41;104728;1270;100375;-79
2023/05/30 03:54:02;;;;;;;7.50;2.50;;;;;;;12.70;62.15;101025.72;104950;1269;97935;-79
2023/05/30 03:56:47;;;;;;;7.00;2.70;;;;;;;12.73;62.16;101025.96;105038;1271;98115;-79
2023/05/30 03:59:33;;;;;;;7.90;2.70;;;;;;;12.71;62.24;101024.30;105021;1268;98580;-80
2023/05/30 04:02:19;;;;;;;10.60;2.20;;;;;;;12.72;62.50;101023.85;104962;1274;101460;-79
2023/05/30 04:05:05;;;;;;;6.90;2.40;;;;;;;12.76;62.75;101025.70;104916;1270;103353;-79
2023/05/30 04:07:51;;;;;;;10.50;2.40;;;;;;;12.81;63.11;101030.20;104880;1267;99555;-79
2023/05/30 04:10:37;;;;;;;4.80;2.40;;;;;;;12.87;63.17;101035.79;104820;1267;97993;-80
2023/05/30 04:13:22;;;;;;;5.40;2.40;;;;;;;12.90;63.22;101039.39;104930;1269;98435;-78
2023/05/30 04:16:09;;;;;;;11.90;2.50;;;;;;;12.88;63.27;101042.96;104933;1270;102221;-79
2023/05/30 04:18:54;;;;;;;9.80;2.70;;;;;;;12.88;63.46;101046.60;104918;1270;100793;-80
2023/05/30 04:21:40;;;;;;;7.70;2.20;;;;;;;12.87;63.98;101048.48;105113;1269;97983;-81
2023/05/30 04:24:29;;;;;;;10.70;2.60;;;;;;;12.89;64.31;101055.27;105704;1265;98070;-81
2023/05/30 04:27:17;;;;;;;11.40;3.10;;;;;;;12.96;64.30;101056.33;105647;1268;97944;-80
2023/05/30 04:30:04;;;;;;;10.90;2.80;;;;;;;13.04;64.27;101060.48;105692;1265;102219;-81
2023/05/30 04:32:50;;;;;;;13.10;2.60;;;;;;;13.09;64.41;101059.23;105717;1267;99555;-81
2023/05/30 04:35:36;;;;;;;6.60;3.10;;;;;;;13.15;64.72;101057.55;105728;1266;97921;-81
2023/05/30 04:38:26;;;;;;;10.30;3.10;;;;;;;13.22;64.51;101060.67;105677;1265;98074;-81
2023/05/30 04:41:17;;;;;;;7.80;2.80;;;;;;;13.24;64.44;101063.71;105826;1267;99350;-81
2023/05/30 04:44:03;;;;;;;7.80;2.70;;;;;;;13.26;64.84;101069.00;105729;1265;101325;-80
2023/05/30 04:46:49;;;;;;;6.10;2.60;;;;;;;13.28;64.91;101073.85;105801;1265;99777;-81
2023/05/30 04:49:39;;;;;;;8.60;2.80;;;;;;;13.31;65.01;101074.50;105622;1270;98129;-80
2023/05/30 04:52:25;;;;;;;7.00;2.90;;;;;;;13.39;65.37;101075.08;105712;1265;97884;-81
2023/05/30 04:55:13;;;;;;;8.60;2.40;;;;;;;13.49;65.33;101076.39;105700;1266;98452;-81
2023/05/30 04:57:58;;;;;;;11.00;3.30;;;;;;;13.58;65.57;101079.46;105822;1265;102570;-80
2023/05/30 05:00:44;;;;;;;6.80;2.70;;;;;;;13.69;65.55;101084.73;105890;1264;100087;-81
2023/05/30 05:03:30;;;;;;;10.40;3.00;;;;;;;13.77;65.51;101082.68;105674;1270;99007;-79
2023/05/30 05:06:16;;;;;;;9.70;2.90;;;;;;;13.84;65.04;101084.86;106514;1270;98040;-80
2023/05/30 05:09:02;;;;;;;5.90;2.40;;;;;;;13.90;64.85;101083.73;105705;1270;97987;-79
2023/05/30 05:11:48;;;;;;;7.40;2.80;;;;;;;14.00;64.96;101086.11;105047;1270;102654;-80
2023/05/30 05:14:34;;;;;;;7.70;2.90;;;;;;;14.10;64.97;101089.50;105130;1270;100955;-80
2023/05/30 05:17:19;;;;;;;5.30;2.50;;;;;;;14.19;64.77;101090.42;105107;1269;97994;-80
2023/05/30 05:20:06;;;;;;;6.30;2.30;;;;;;;14.26;64.57;101092.13;105576;1270;98030;-79
2023/05/30 05:22:51;;;;;;;9.50;3.10;;;;;;;14.26;63.78;101096.64;105604;1270;98001;-78
2023/05/30 05:25:36;;;;;;;6.90;2.80;;;;;;;14.30;63.54;101101.45;105009;1269;102430;-78
2023/05/30 05:28:22;;;;;;;11.70;3.00;;;;;;;14.31;62.88;101096.66;105111;1269;100022;-80
2023/05/30 05:31:08;;;;;;;7.00;2.20;;;;;;;14.33;63.28;101102.44;105741;1270;99053;-80
2023/05/30 05:33:53;;;;;;;7.30;2.50;;;;;;;14.43;63.71;101100.63;105777;1270;97871;-80
2023/05/30 05:36:42;;;;;;;8.20;3.30;;;;;;;14.51;63.33;101103.57;105758;1269;98224;-79
2023/05/30 05:39:27;;;;;;;7.50;2.20;;;;;;;14.62;63.42;101106.11;105576;1270;102513;-80
2023/05/30 05:42:13;;;;;;;7.40;2.50;;;;;;;14.72;63.45;101109.89;105683;1267;100339;-80
2023/05/30 05:44:59;;;;;;;7.30;2.60;;;;;;;14.78;62.35;101110.11;105611;1266;98098;-79
2023/05/30 05:47:45;;;;;;;8.00;2.40;;;;;;;14.84;62.71;101112.22;105039;1270;98089;-80
2023/05/30 05:50:31;;;;;;;9.60;2.50;;;;;;;14.92;62.07;101111.34;105046;1265;98496;-78
2023/05/30 05:53:16;;;;;;;6.30;2.10;;;;;;;15.00;61.54;101109.83;105091;1267;102038;-79
2023/05/30 05:56:02;;;;;;;7.30;2.50;;;;;;;15.11;61.93;101111.69;105149;1270;99095;-79
2023/05/30 05:58:47;;;;;;;4.10;2.00;;;;;;;15.17;61.65;101111.77;104855;1265;98026;-80
2023/05/30 06:01:33;;;;;;;7.70;2.60;;;;;;;15.20;61.62;101111.48;105015;1265;97904;-78
2023/05/30 06:04:18;;;;;;;7.60;2.60;;;;;;;15.30;61.64;101116.41;105157;1269;98428;-81
2023/05/30 06:07:04;;;;;;;6.10;2.10;;;;;;;15.37;61.45;101121.91;105569;1270;102073;-80
2023/05/30 06:09:50;;;;;;;7.20;2.60;;;;;;;15.49;61.61;101128.48;105339;1270;100037;-79
2023/05/30 06:12:35;;;;;;;11.10;3.10;;;;;;;15.61;61.36;101125.04;105719;1269;98333;-80
2023/05/30 06:15:21;;;;;;;8.70;2.70;;;;;;;15.74;60.84;101126.16;105686;1265;97959;-80
2023/05/30 06:18:06;;;;;;;7.90;2.20;;;;;;;15.81;60.34;101126.22;105715;1265;98406;-80
2023/05/30 06:20:52;;;;;;;4.60;2.10;;;;;;;15.85;60.05;101126.30;105610;1265;114037;-80
2023/05/30 06:23:38;;;;;;;7.60;2.20;;;;;;;15.81;60.16;101129.09;105710;1269;99779;-81
2023/05/30 06:26:23;;;;;;;8.00;2.60;;;;;;;15.89;59.62;101133.81;105610;1265;97974;-79
2023/05/30 06:29:10;;;;;;;5.00;1.80;;;;;;;15.98;58.85;101134.90;105755;1265;98042;-80
2023/05/30 06:31:55;;;;;;;5.30;2.00;;;;;;;16.07;58.29;101137.38;105733;1264;98481;-79
2023/05/30 06:34:41;;;;;;;8.90;2.00;;;;;;;16.13;58.86;101137.89;105744;1265;102102;-79
2023/05/30 06:37:26;;;;;;;4.50;1.50;;;;;;;16.24;58.53;101135.91;105781;1265;99098;-79
2023/05/30 06:40:12;;;;;;;5.80;2.00;;;;;;;16.35;57.81;101140.63;105763;1265;98003;-80
2023/05/30 06:42:58;;;;;;;9.00;3.00;;;;;;;16.41;58.27;101141.11;105673;1269;97990;-80
2023/05/30 06:45:44;;;;;;;4.90;2.10;;;;;;;16.52;57.68;101141.45;105563;1265;100483;-80
2023/05/30 06:48:30;;;;;;;5.20;1.50;;;;;;;16.62;57.28;101140.02;105448;1270;101353;-78
2023/05/30 06:51:16;;;;;;;6.90;1.70;;;;;;;16.72;56.67;101141.77;104989;1267;100875;-78
2023/05/30 06:54:02;;;;;;;9.40;2.00;;;;;;;16.77;55.89;101144.04;105046;1265;99343;-79
2023/05/30 06:56:48;;;;;;;7.10;2.10;;;;;;;16.81;55.11;101141.86;104941;1265;98098;-77
2023/05/30 06:59:34;;;;;;;4.40;2.30;;;;;;;16.82;54.67;101146.39;104714;1265;98456;-77
2023/05/30 07:02:20;;;;;;;6.70;2.10;;;;;;;16.83;54.32;101146.06;107229;1269;102683;-77
2023/05/30 07:05:06;;;;;;;4.80;1.90;;;;;;;16.89;53.53;101150.45;104905;1265;100097;-78
2023/05/30 07:07:51;;;;;;;6.70;1.70;;;;;;;16.94;53.57;101142.52;105671;1266;98916;-78
2023/05/30 07:10:37;;;;;;;6.50;1.90;;;;;;;17.04;53.36;101142.48;104742;1265;99256;-77
2023/05/30 07:13:23;;;;;;;5.30;1.70;;;;;;;17.10;52.60;101136.33;104918;1270;98541;-79
2023/05/30 07:16:08;;;;;;;5.60;2.10;;;;;;;17.16;53.42;101135.66;104988;1266;101345;-79
2023/05/30 07:18:54;;;;;;;5.20;1.80;;;;;;;17.27;52.89;101135.34;105129;1265;107722;-79
2023/05/30 07:21:39;;;;;;;7.50;2.20;;;;;;;17.33;52.21;101138.92;105187;1269;98407;-79
2023/05/30 07:24:25;;;;;;;2.80;1.40;;;;;;;17.35;51.30;101140.88;105096;1265;97898;-79
2023/05/30 07:27:11;;;;;;;3.30;1.80;;;;;;;17.39;51.91;101142.92;105142;1265;98083;-80
2023/05/30 07:29:57;;;;;;;8.70;1.90;;;;;;;17.47;51.42;101143.35;105107;1265;101407;-79
2023/05/30 07:32:42;;;;;;;3.00;1.60;;;;;;;17.54;51.31;101142.73;105056;1271;99160;-80
2023/05/30 07:35:28;;;;;;;6.50;1.60;;;;;;;17.59;50.53;101145.06;105766;1265;98163;-80
2023/05/30 07:38:13;;;;;;;6.70;1.60;;;;;;;17.66;50.49;101146.32;105764;1265;97930;-81
2023/05/30 07:40:59;;;;;;;3.90;1.30;;;;;;;17.66;49.71;101147.58;105786;1264;97734;-80
2023/05/30 07:43:44;;;;;;;7.60;2.00;;;;;;;17.68;49.73;101149.60;105941;1270;101376;-78
2023/05/30 07:46:30;;;;;;;7.10;1.90;;;;;;;17.70;49.33;101148.92;104721;1270;99088;-78
2023/05/30 07:49:15;;;;;;;6.20;2.30;;;;;;;17.76;49.51;101144.55;105022;1265;99116;-78
2023/05/30 07:52:01;;;;;;;3.30;1.80;;;;;;;17.85;49.73;101140.63;104839;1265;98130;-78
2023/05/30 07:54:46;;;;;;;12.70;2.60;;;;;;;17.98;50.36;101142.61;104917;1265;97921;-79
2023/05/30 07:57:32;;;;;;;8.00;1.90;;;;;;;18.10;50.09;101145.30;104930;1265;101337;-78
2023/05/30 08:00:18;;;;;;;5.00;1.70;;;;;;;18.17;49.72;101142.86;104847;1265;99100;-79
2023/05/30 08:03:03;;;;;;;6.60;1.50;;;;;;;18.22;49.07;101145.84;104874;1265;98549;-79
2023/05/30 08:05:51;;;;;;;3.50;1.60;;;;;;;18.26;49.27;101148.80;105001;1265;97996;-79
2023/05/30 08:08:36;;;;;;;4.20;1.90;;;;;;;18.34;48.54;101144.06;104999;1269;99627;-78
2023/05/30 08:11:25;;;;;;;5.00;1.60;;;;;;;18.41;48.23;101147.15;104935;1265;102614;-79
2023/05/30 08:14:10;;;;;;;8.90;1.90;;;;;;;18.46;47.25;101149.71;104939;1270;99081;-80
2023/05/30 08:16:56;;;;;;;5.10;1.40;;;;;;;18.47;47.48;101145.66;105004;1265;98854;-79
2023/05/30 08:19:42;;;;;;;7.70;1.70;;;;;;;18.50;46.95;101146.47;104985;1265;98673;-80
2023/05/30 08:22:28;;;;;;;6.00;2.00;;;;;;;18.53;47.12;101151.02;105151;1265;98394;-78
2023/05/30 08:25:16;;;;;;;4.80;2.30;;;;;;;18.53;46.42;101150.73;104955;1265;101390;-78
2023/05/30 08:28:02;;;;;;;5.50;1.30;;;;;;;18.55;46.42;101147.33;105184;1269;100119;-80
2023/05/30 08:30:48;;;;;;;4.40;1.70;;;;;;;18.62;46.89;101145.76;105157;1269;99000;-84
2023/05/30 08:37:01;;;;;;;7.80;1.90;;;;;;;18.77;46.39;101151.04;107105;1270;98229;-92
2023/05/30 08:39:47;;;;;;;6.40;2.10;;;;;;;18.85;47.06;101154.91;106375;1269;101378;-90
2023/05/30 08:42:33;;;;;;;4.60;1.50;;;;;;;18.91;46.22;101157.67;106353;1271;99177;-88
2023/05/30 08:45:28;;;;;;;5.10;1.40;;;;;;;18.93;46.08;101152.14;106058;1276;99334;-93
2023/05/30 08:51:45;;;;;;;5.50;1.30;;;;;;;19.11;45.91;101160.01;106332;1268;95978;-93
2023/05/30 08:55:31;;;;;;;7.20;1.70;;;;;;;19.16;45.81;101161.33;106388;1268;102422;-93
2023/05/30 08:58:21;;;;;;;4.90;1.40;;;;;;;19.26;45.79;101165.58;106339;1268;109566;-91
2023/05/30 09:01:09;;;;;;;7.80;1.70;;;;;;;19.30;45.19;101163.79;105864;1272;98037;-88
2023/05/30 09:03:59;;;;;;;6.20;1.70;;;;;;;19.29;44.48;101169.73;105633;1273;97936;-87
2023/05/30 09:06:46;;;;;;;9.70;1.50;;;;;;;19.25;43.79;101172.45;105673;1268;98598;-84
2023/05/30 09:09:33;;;;;;;6.80;2.10;;;;;;;19.24;43.51;101174.71;105406;1272;101365;-79
2023/05/30 09:12:18;;;;;;;4.00;2.10;;;;;;;19.24;43.68;101173.95;104792;1268;99299;-79
2023/05/30 09:15:04;;;;;;;4.10;1.90;;;;;;;19.24;43.74;101169.12;105472;1268;98969;-82
2023/05/30 09:17:50;;;;;;;9.50;2.40;;;;;;;19.30;44.16;101168.13;105605;1268;97995;-80
2023/05/30 09:20:40;;;;;;;5.10;1.70;;;;;;;19.35;44.32;101177.05;104818;1271;97893;-79
2023/05/30 09:23:29;;;;;;;6.40;1.70;;;;;;;19.35;43.94;101175.52;104829;1268;101710;-82
2023/05/30 09:26:15;;;;;;;4.50;1.40;;;;;;;19.35;44.04;101168.24;105753;1268;99104;-82
2023/05/30 09:29:08;;;;;;;4.00;1.70;;;;;;;19.42;44.34;101168.48;105417;1271;98196;-83
2023/05/30 09:31:56;;;;;;;8.00;1.90;;;;;;;19.47;43.75;101169.79;105381;1273;97894;-86
2023/05/30 09:34:51;;;;;;;6.50;1.30;;;;;;;19.53;44.01;101170.70;105918;1273;97885;-83
2023/05/30 09:37:43;;;;;;;7.50;1.80;;;;;;;19.57;44.20;101166.63;105856;1270;102645;-86
2023/05/30 09:40:30;;;;;;;7.00;1.60;;;;;;;19.64;43.89;101168.82;105716;1268;100515;-92
2023/05/30 09:43:36;;;;;;;6.10;1.80;;;;;;;19.67;43.18;101172.85;105842;1268;97780;-92
2023/05/30 09:46:23;;;;;;;4.40;1.70;;;;;;;19.70;43.07;101169.62;105568;1268;97942;-82
2023/05/30 09:49:11;;;;;;;1.70;1.30;;;;;;;19.77;43.64;101171.11;105605;1268;97908;-83
2023/05/30 09:51:56;;;;;;;5.00;1.80;;;;;;;19.82;43.29;101173.41;105437;1271;101370;-87
2023/05/30 09:54:43;;;;;;;7.30;1.60;;;;;;;19.76;42.64;101174.95;105522;1268;99114;-84
2023/05/30 09:57:29;;;;;;;4.80;1.50;;;;;;;19.73;42.78;101170.58;105551;1268;99525;-87
2023/05/30 10:00:21;;;;;;;6.10;2.20;;;;;;;19.79;43.09;101171.77;105679;1273;98112;-88
2023/05/30 10:03:07;;;;;;;6.20;1.80;;;;;;;19.87;43.03;101166.41;105861;1266;98410;-87
2023/05/30 10:06:07;;;;;;;4.90;1.50;;;;;;;19.93;42.39;101172.92;105885;1267;101346;-92
2023/05/30 10:08:59;;;;;;;6.70;2.10;;;;;;;19.94;42.15;101181.89;106290;1273;100406;-92
2023/05/30 10:11:47;;;;;;;3.50;1.40;;;;;;;19.95;41.73;101178.27;106067;1270;98000;-90
2023/05/30 10:14:34;;;;;;;9.10;1.60;;;;;;;19.98;41.95;101173.21;106023;1271;98052;-89
2023/05/30 10:17:22;;;;;;;4.10;1.50;;;;;;;20.07;41.84;101170.45;105673;1276;97981;-84
2023/05/30 10:20:12;;;;;;;4.80;1.40;;;;;;;20.16;41.35;101174.38;105842;1269;101444;-88
2023/05/30 10:22:59;;;;;;;2.70;1.30;;;;;;;20.23;41.30;101174.18;105736;1270;100377;-89
2023/05/30 10:25:49;;;;;;;6.70;2.00;;;;;;;20.18;40.45;101175.36;105845;1269;98026;-86
2023/05/30 10:28:36;;;;;;;5.10;1.80;;;;;;;20.05;40.71;101174.74;105851;1270;99164;-89
2023/05/30 10:31:25;;;;;;;3.30;1.40;;;;;;;20.07;40.66;101174.30;105945;1271;98433;-91
2023/05/30 10:34:14;;;;;;;4.80;1.70;;;;;;;20.13;40.47;101166.02;106159;1270;103240;-92
2023/05/30 10:37:01;;;;;;;4.90;1.70;;;;;;;20.22;40.08;101173.35;105556;1270;100659;-86
2023/05/30 10:40:01;;;;;;;7.30;1.60;;;;;;;20.25;39.84;101174.30;106088;1272;98982;-89
2023/05/30 10:42:56;;;;;;;4.20;2.20;;;;;;;20.28;39.61;101178.44;105712;1270;97943;-86
2023/05/30 10:45:47;;;;;;;4.50;1.10;;;;;;;20.33;39.75;101174.27;105829;1269;98397;-88
2023/05/30 10:48:48;;;;;;;2.50;1.60;;;;;;;20.40;39.04;101178.02;105795;1269;101924;-88
2023/05/30 10:51:59;;;;;;;3.60;1.50;;;;;;;20.43;38.29;101177.49;105526;1273;99409;-89
2023/05/30 10:54:47;;;;;;;3.50;1.30;;;;;;;20.43;37.71;101173.51;105564;1270;99647;-87
2023/05/30 10:57:33;;;;;;;3.60;1.40;;;;;;;20.45;37.59;101170.36;105491;1276;97907;-87
2023/05/30 11:00:25;;;;;;;7.60;1.90;;;;;;;20.50;38.16;101173.99;105409;1277;97982;-77
2023/05/30 11:03:36;;;;;;;3.60;1.50;;;;;;;20.54;38.16;101169.81;105549;1269;102174;-87
2023/05/30 11:06:24;;;;;;;3.50;1.50;;;;;;;20.61;38.00;101163.91;105427;1268;100556;-88
2023/05/30 11:09:11;;;;;;;1.80;1.30;;;;;;;20.67;38.28;101159.96;105553;1268;99153;-88
2023/05/30 11:11:59;;;;;;;3.90;1.50;;;;;;;20.76;37.79;101163.20;105658;1270;97971;-83
2023/05/30 11:14:57;;;;;;;5.30;1.30;;;;;;;20.79;37.88;101161.29;105447;1268;98609;-82
2023/05/30 11:17:43;;;;;;;4.40;1.50;;;;;;;20.86;37.30;101161.23;105529;1267;102449;-88
2023/05/30 11:20:29;;;;;;;8.10;1.70;;;;;;;20.93;36.94;101160.17;105152;1272;100477;-87
2023/05/30 11:23:19;;;;;;;4.10;1.30;;;;;;;20.94;36.74;101158.40;105441;1268;99464;-86
2023/05/30 11:26:04;;;;;;;7.10;1.80;;;;;;;20.99;36.33;101160.36;105313;1268;98026;-85
2023/05/30 11:28:52;;;;;;;4.10;1.40;;;;;;;21.02;36.08;101168.27;105556;1273;98472;-88
2023/05/30 11:31:39;;;;;;;3.60;1.40;;;;;;;21.01;35.82;101170.23;105377;1268;102646;-85
2023/05/30 11:34:24;;;;;;;6.60;1.40;;;;;;;21.02;36.55;101169.54;105407;1270;100096;-86
2023/05/30 11:37:11;;;;;;;1.60;1.20;;;;;;;21.10;36.54;101168.64;105482;1268;97949;-88
2023/05/30 11:39:56;;;;;;;4.30;1.40;;;;;;;21.14;36.09;101166.80;105747;1268;97997;-88
2023/05/30 11:42:42;;;;;;;4.00;1.30;;;;;;;21.13;36.00;101169.67;105513;1268;97893;-86
2023/05/30 11:45:29;;;;;;;4.30;1.50;;;;;;;21.14;36.07;101168.39;105408;1268;101378;-86
2023/05/30 11:48:15;;;;;;;5.90;1.40;;;;;;;21.15;35.70;101170.75;105384;1268;99242;-85
2023/05/30 11:51:01;;;;;;;3.30;1.20;;;;;;;21.15;34.97;101165.69;105494;1268;97990;-80
2023/05/30 11:53:49;;;;;;;3.90;1.30;;;;;;;21.12;34.82;101166.38;105846;1268;98132;-87
2023/05/30 11:56:36;;;;;;;2.70;1.10;;;;;;;21.14;35.52;101165.66;105489;1268;97984;-89
2023/05/30 11:59:24;;;;;;;6.70;1.70;;;;;;;21.15;34.59;101164.85;105726;1273;101354;-88
2023/05/30 12:02:10;;;;;;;3.80;1.30;;;;;;;21.08;34.27;101167.55;105614;1273;100398;-89
2023/05/30 12:05:01;;;;;;;6.30;1.30;;;;;;;21.10;34.59;101165.42;105575;1276;99173;-79
2023/05/30 12:07:52;;;;;;;;;;;;;;;21.14;33.90;101171.15;104410;1268;98004;-77
2023/05/30 12:10:38;;;;;;;2.00;1.10;;;;;;;21.08;33.64;101170.27;104391;1272;99272;-78
2023/05/30 12:13:23;;;;;;;4.10;1.30;;;;;;;21.08;34.50;101171.00;104393;1268;101373;-77
2023/05/30 12:16:13;;;;;;;3.10;1.50;;;;;;;21.13;34.41;101168.32;104407;1268;99106;-77
2023/05/30 12:18:58;;;;;;;4.40;1.60;;;;;;;21.14;34.39;101165.30;104378;1268;98516;-78
2023/05/30 12:21:43;;;;;;;5.40;1.30;;;;;;;21.19;34.71;101162.29;104399;1268;98090;-79
2023/05/30 12:24:29;;;;;;;4.50;1.30;;;;;;;21.24;34.00;101161.66;104440;1270;98434;-78
2023/05/30 12:27:17;;;;;;;2.80;1.20;;;;;;;21.30;33.85;101164.44;104413;1268;101354;-78
2023/05/30 12:30:13;;;;;;;3.70;1.30;;;;;;;21.26;33.02;101164.69;104474;1270;100352;-78
2023/05/30 12:32:58;;;;;;;3.40;1.40;;;;;;;21.19;32.82;101162.82;104509;1268;99060;-77
2023/05/30 12:35:45;;;;;;;4.80;1.20;;;;;;;21.18;33.02;101161.49;104407;1272;98222;-78
2023/05/30 12:38:31;;;;;;;3.10;1.10;;;;;;;21.22;33.00;101160.48;104434;1268;98078;-77
2023/05/30 12:41:26;;;;;;;3.10;1.60;;;;;;;21.27;32.49;101162.65;105620;1268;102723;-86
2023/05/30 12:44:19;;;;;;;2.80;1.00;;;;;;;21.33;32.88;101162.10;105279;1268;100300;-86
2023/05/30 12:47:04;;;;;;;6.30;1.40;;;;;;;21.37;33.62;101169.16;105308;1268;98724;-83
2023/05/30 12:49:50;;;;;;;3.10;1.50;;;;;;;21.46;33.85;101174.02;105393;1272;98116;-85
2023/05/30 12:52:36;;;;;;;3.20;1.20;;;;;;;21.53;33.36;101176.40;105599;1268;98613;-79
2023/05/30 12:55:21;;;;;;;4.90;1.20;;;;;;;21.53;33.24;101174.15;105640;1268;101355;-80